Time;durP1;ratioP1;P1;durP2;ratioP2;P2;SDS_P1;SDS_P2;PMS_P1;PMS_P2;Temp;Humidity;BMP_temperature;BMP_pressure;BME280_temperature;BME280_humidity;BME280_pressure;Samples;Min_cycle;Max_cycle;Signal;HPM_P1;HPM_P2
2023/12/13 00:00:36;;;;;;;2.60;0.80;;;10.10;99.90;;;;;;5053488;28;20489;-61
2023/12/13 00:03:03;;;;;;;5.90;1.20;;;10.00;99.90;;;;;;5053404;28;20461;-61
2023/12/13 00:05:30;;;;;;;2.23;0.80;;;10.00;99.90;;;;;;5053556;28;20456;-62
2023/12/13 00:07:57;;;;;;;5.17;1.00;;;10.00;99.90;;;;;;5053447;28;20492;-61
2023/12/13 00:10:23;;;;;;;2.33;1.40;;;10.00;99.90;;;;;;5053520;28;20465;-61
2023/12/13 00:12:50;;;;;;;4.73;1.30;;;10.00;99.90;;;;;;5053524;28;20460;-61
2023/12/13 00:15:17;;;;;;;5.23;0.87;;;10.00;99.90;;;;;;5053479;28;20445;-62
2023/12/13 00:17:45;;;;;;;3.27;1.30;;;9.90;99.90;;;;;;5053128;28;20978;-61
2023/12/13 00:20:12;;;;;;;3.20;1.17;;;9.90;99.90;;;;;;5053307;28;20820;-62
2023/12/13 00:22:38;;;;;;;8.60;1.97;;;9.90;99.90;;;;;;5052936;28;20441;-62
2023/12/13 00:25:06;;;;;;;4.40;1.30;;;9.90;99.90;;;;;;5053387;28;20437;-61
2023/12/13 00:27:33;;;;;;;4.53;1.50;;;9.90;99.90;;;;;;5053279;28;20496;-62
2023/12/13 00:29:59;;;;;;;13.87;2.67;;;9.90;99.90;;;;;;5053209;28;20456;-62
2023/12/13 00:32:26;;;;;;;3.03;1.10;;;9.90;99.90;;;;;;5052922;28;20450;-62
2023/12/13 00:34:54;;;;;;;8.43;1.70;;;9.90;99.90;;;;;;5052974;28;20437;-62
2023/12/13 00:37:21;;;;;;;8.80;1.30;;;9.90;99.90;;;;;;5053218;28;20495;-62
2023/12/13 00:39:47;;;;;;;3.70;1.40;;;9.90;99.90;;;;;;5053212;28;20445;-62
2023/12/13 00:42:14;;;;;;;1.83;0.80;;;9.90;99.90;;;;;;5056699;28;20472;-62
2023/12/13 00:44:41;;;;;;;3.93;0.93;;;10.00;99.90;;;;;;5057036;28;20461;-62
2023/12/13 00:47:08;;;;;;;3.80;1.90;;;10.00;99.90;;;;;;5057292;28;20525;-63
2023/12/13 00:49:36;;;;;;;7.07;3.30;;;10.00;99.90;;;;;;5056988;28;20441;-62
2023/12/13 00:52:05;;;;;;;4.83;0.97;;;10.00;99.90;;;;;;5057133;28;20469;-62
2023/12/13 00:54:32;;;;;;;7.77;1.23;;;10.00;99.90;;;;;;5057114;28;20495;-62
2023/12/13 00:56:58;;;;;;;2.53;1.10;;;10.00;99.90;;;;;;5057112;28;20540;-62
2023/12/13 00:59:25;;;;;;;4.33;1.00;;;10.00;99.90;;;;;;5056156;28;20445;-61
2023/12/13 01:01:51;;;;;;;5.13;2.83;;;10.00;99.90;;;;;;5056353;28;20469;-61
2023/12/13 01:04:18;;;;;;;2.30;0.93;;;10.00;99.90;;;;;;5056502;28;20453;-61
2023/12/13 01:06:44;;;;;;;3.77;1.30;;;10.00;99.90;;;;;;5056862;28;20223;-61
2023/12/13 01:09:12;;;;;;;3.70;1.50;;;10.10;99.90;;;;;;5056867;28;20542;-61
2023/12/13 01:11:39;;;;;;;3.07;1.43;;;10.10;99.90;;;;;;5056555;28;20476;-62
2023/12/13 01:14:06;;;;;;;4.03;1.30;;;10.10;99.90;;;;;;5056689;28;20442;-62
2023/12/13 01:16:33;;;;;;;6.30;1.30;;;10.10;99.90;;;;;;5056579;28;20470;-62
2023/12/13 01:19:01;;;;;;;6.53;1.50;;;10.10;99.90;;;;;;5056625;28;20918;-62
2023/12/13 01:21:28;;;;;;;3.93;1.50;;;10.00;99.90;;;;;;5056430;28;20833;-62
2023/12/13 01:23:55;;;;;;;2.90;1.50;;;10.00;99.90;;;;;;5056526;28;20548;-62
2023/12/13 01:26:23;;;;;;;4.33;1.53;;;10.00;99.90;;;;;;5056072;28;21045;-62
2023/12/13 01:28:50;;;;;;;6.83;1.43;;;10.00;99.90;;;;;;5056362;28;20442;-62
2023/12/13 01:31:17;;;;;;;3.67;0.90;;;9.90;99.90;;;;;;5056323;28;20465;-62
2023/12/13 01:33:44;;;;;;;6.67;1.30;;;9.90;99.90;;;;;;5056388;28;20441;-61
2023/12/13 01:36:10;;;;;;;4.13;1.60;;;9.90;99.90;;;;;;5056497;28;20446;-61
2023/12/13 01:38:37;;;;;;;4.80;1.37;;;9.90;99.90;;;;;;5056166;28;20453;-61
2023/12/13 01:41:04;;;;;;;4.70;1.43;;;9.90;99.90;;;;;;5056138;28;20465;-61
2023/12/13 01:43:32;;;;;;;8.73;1.73;;;9.90;99.90;;;;;;5056211;28;20594;-61
2023/12/13 01:45:59;;;;;;;4.00;1.43;;;9.90;99.90;;;;;;5056057;28;20471;-61
2023/12/13 01:48:27;;;;;;;3.00;1.30;;;9.90;99.90;;;;;;5056029;28;20524;-62
2023/12/13 01:50:55;;;;;;;4.03;1.47;;;9.90;99.90;;;;;;5055641;28;20470;-62
2023/12/13 01:53:22;;;;;;;6.37;1.33;;;9.90;99.90;;;;;;5054723;28;20473;-62
2023/12/13 01:55:49;;;;;;;3.80;1.40;;;9.90;99.90;;;;;;5055628;28;20956;-62
2023/12/13 01:58:16;;;;;;;6.87;1.70;;;9.90;99.90;;;;;;5055867;28;20824;-62
2023/12/13 02:00:45;;;;;;;5.97;1.57;;;9.90;99.90;;;;;;5055805;28;20879;-62
2023/12/13 02:03:12;;;;;;;3.93;1.30;;;9.90;99.90;;;;;;5055548;28;20468;-62
2023/12/13 02:05:39;;;;;;;3.40;1.40;;;10.00;99.90;;;;;;5055454;28;20944;-62
2023/12/13 02:08:07;;;;;;;7.53;1.40;;;10.00;99.90;;;;;;5055564;28;20485;-62
2023/12/13 02:10:34;;;;;;;4.23;1.40;;;10.00;99.90;;;;;;5055550;28;20468;-62
2023/12/13 02:13:01;;;;;;;5.17;1.40;;;10.00;99.90;;;;;;5055404;28;20931;-62
2023/12/13 02:15:27;;;;;;;10.83;2.13;;;10.10;99.90;;;;;;5055658;28;20452;-62
2023/12/13 02:17:57;;;;;;;8.87;2.13;;;10.10;99.90;;;;;;5055318;28;20940;-62
2023/12/13 02:20:24;;;;;;;4.90;1.33;;;10.10;99.90;;;;;;5055269;28;20575;-62
2023/12/13 02:22:52;;;;;;;5.70;1.40;;;10.10;99.90;;;;;;5055976;28;20521;-62
2023/12/13 02:25:25;;;;;;;10.37;1.50;;;10.10;99.90;;;;;;5055535;28;20453;-62
2023/12/13 02:27:53;;;;;;;5.80;1.63;;;10.20;99.90;;;;;;5055428;28;20488;-62
2023/12/13 02:30:20;;;;;;;9.23;1.43;;;10.20;99.90;;;;;;5055319;28;20465;-63
2023/12/13 02:32:46;;;;;;;13.57;1.63;;;10.20;99.90;;;;;;5055258;28;20457;-62
2023/12/13 02:35:13;;;;;;;2.63;1.10;;;10.20;99.90;;;;;;5055273;28;20450;-62
2023/12/13 02:37:45;;;;;;;5.57;1.60;;;10.20;99.90;;;;;;5055245;28;20434;-62
2023/12/13 02:40:14;;;;;;;5.80;1.70;;;10.20;99.90;;;;;;5055056;28;20425;-63
2023/12/13 02:42:41;;;;;;;7.67;1.73;;;10.20;99.90;;;;;;5055817;28;20519;-62
2023/12/13 02:45:11;;;;;;;9.27;1.80;;;10.30;99.90;;;;;;5055167;28;20982;-62
2023/12/13 02:47:41;;;;;;;5.73;1.70;;;10.30;99.90;;;;;;5054877;28;21002;-62
2023/12/13 02:50:08;;;;;;;7.80;1.87;;;10.30;99.90;;;;;;5055249;28;20445;-63
2023/12/13 02:52:35;;;;;;;14.17;2.00;;;10.30;99.90;;;;;;5055236;28;20453;-63
2023/12/13 02:55:02;;;;;;;7.73;1.30;;;10.30;99.90;;;;;;5055748;28;20468;-62
2023/12/13 02:57:30;;;;;;;10.03;2.37;;;10.40;99.90;;;;;;5055038;28;20536;-62
2023/12/13 02:59:57;;;;;;;6.70;1.90;;;10.30;99.90;;;;;;5055052;28;20491;-62
2023/12/13 03:02:23;;;;;;;6.30;1.70;;;10.40;99.90;;;;;;5054718;28;20492;-62
2023/12/13 03:04:50;;;;;;;8.03;2.13;;;10.40;99.90;;;;;;5055058;28;20426;-62
2023/12/13 03:07:17;;;;;;;7.50;1.70;;;10.40;99.90;;;;;;5055084;28;20484;-62
2023/12/13 03:09:43;;;;;;;3.80;1.80;;;10.40;99.90;;;;;;5055556;28;20449;-61
2023/12/13 03:12:10;;;;;;;8.73;2.50;;;10.40;99.90;;;;;;5054602;28;20472;-59
2023/12/13 03:14:38;;;;;;;9.27;2.77;;;10.50;99.90;;;;;;5054540;28;20442;-60
2023/12/13 03:17:05;;;;;;;8.03;2.20;;;10.50;99.90;;;;;;5054445;28;20434;-60
2023/12/13 03:19:31;;;;;;;13.73;3.17;;;10.50;99.90;;;;;;5054311;28;20445;-60
2023/12/13 03:21:58;;;;;;;8.40;2.20;;;10.50;99.90;;;;;;5054324;28;20812;-59
2023/12/13 03:24:25;;;;;;;8.10;1.70;;;10.50;99.90;;;;;;5054331;28;20446;-59
2023/12/13 03:26:51;;;;;;;8.30;1.80;;;10.50;99.90;;;;;;5054166;28;20445;-60
2023/12/13 03:29:18;;;;;;;5.00;1.80;;;10.50;99.90;;;;;;5054425;28;20491;-60
2023/12/13 03:31:46;;;;;;;7.77;2.00;;;10.50;99.90;;;;;;5053869;28;20971;-61
2023/12/13 03:34:14;;;;;;;4.10;1.60;;;10.50;99.90;;;;;;5053956;28;20931;-61
2023/12/13 03:36:41;;;;;;;12.90;1.93;;;10.50;99.90;;;;;;5053611;28;20471;-61
2023/12/13 03:39:08;;;;;;;10.40;2.60;;;10.50;99.90;;;;;;5054131;28;20438;-61
2023/12/13 03:41:35;;;;;;;5.80;2.20;;;10.50;99.90;;;;;;5053915;28;20468;-61
2023/12/13 03:44:02;;;;;;;8.33;2.33;;;10.50;99.90;;;;;;5054030;28;20456;-61
2023/12/13 03:46:28;;;;;;;9.73;2.30;;;10.50;99.90;;;;;;5054026;28;20453;-61
2023/12/13 03:48:56;;;;;;;10.03;1.90;;;10.50;99.90;;;;;;5053818;28;20511;-61
2023/12/13 03:51:23;;;;;;;18.23;2.20;;;10.50;99.90;;;;;;5053942;28;20469;-61
2023/12/13 03:53:50;;;;;;;4.40;1.30;;;10.50;99.90;;;;;;5053604;28;20453;-60
2023/12/13 03:56:16;;;;;;;4.97;2.23;;;10.50;99.90;;;;;;5053768;28;20445;-61
2023/12/13 03:58:43;;;;;;;11.27;2.83;;;10.50;99.90;;;;;;5053824;28;20448;-61
2023/12/13 04:01:11;;;;;;;5.00;1.93;;;10.50;99.90;;;;;;5053945;28;20472;-61
2023/12/13 04:03:37;;;;;;;7.50;2.23;;;10.50;99.90;;;;;;5053398;28;20461;-61
2023/12/13 04:06:06;;;;;;;18.77;2.73;;;10.50;99.90;;;;;;5053655;28;20480;-61
2023/12/13 04:08:33;;;;;;;6.47;2.77;;;10.50;99.90;;;;;;5053433;28;20558;-61
2023/12/13 04:10:59;;;;;;;11.27;2.40;;;10.50;99.90;;;;;;5053539;28;20466;-60
2023/12/13 04:13:26;;;;;;;12.57;3.47;;;10.50;99.90;;;;;;5053341;28;20449;-60
2023/12/13 04:15:53;;;;;;;8.67;2.20;;;10.50;99.90;;;;;;5052920;28;20442;-59
2023/12/13 04:18:19;;;;;;;11.80;2.70;;;10.60;99.90;;;;;;5053773;28;20449;-60
2023/12/13 04:20:46;;;;;;;8.60;2.80;;;10.50;99.90;;;;;;5053640;28;20466;-60
2023/12/13 04:23:14;;;;;;;7.60;1.90;;;10.60;99.90;;;;;;5053215;28;20448;-60
2023/12/13 04:25:41;;;;;;;8.90;2.37;;;10.60;99.90;;;;;;5053548;28;20511;-59
2023/12/13 04:28:07;;;;;;;7.63;2.53;;;10.50;99.90;;;;;;5057426;28;20508;-59
2023/12/13 04:30:34;;;;;;;12.63;2.30;;;10.50;99.90;;;;;;5056213;28;20473;-59
2023/12/13 04:33:01;;;;;;;8.87;2.20;;;10.50;99.90;;;;;;5054380;28;20458;-59
2023/12/13 04:35:28;;;;;;;7.80;2.47;;;10.50;99.90;;;;;;5053251;28;20503;-60
2023/12/13 04:37:55;;;;;;;7.00;2.10;;;10.50;99.90;;;;;;5052931;28;20456;-60
2023/12/13 04:40:23;;;;;;;10.60;1.93;;;10.60;99.90;;;;;;5053179;28;20462;-61
2023/12/13 04:42:49;;;;;;;7.63;2.53;;;10.50;99.90;;;;;;5053264;28;20445;-60
2023/12/13 04:45:16;;;;;;;8.70;1.90;;;10.50;99.90;;;;;;5052913;28;20442;-60
2023/12/13 04:47:43;;;;;;;11.93;2.40;;;10.50;99.90;;;;;;5052731;28;21015;-60
2023/12/13 04:50:11;;;;;;;8.50;2.07;;;10.50;99.90;;;;;;5052645;28;20445;-61
2023/12/13 04:52:37;;;;;;;4.40;1.80;;;10.50;99.90;;;;;;5052980;28;20445;-61
2023/12/13 04:55:05;;;;;;;9.97;2.33;;;10.50;99.90;;;;;;5052826;28;20481;-60
2023/12/13 04:57:33;;;;;;;8.87;2.57;;;10.50;99.90;;;;;;5052889;28;20441;-60
2023/12/13 05:00:00;;;;;;;6.97;1.80;;;10.50;99.90;;;;;;5052977;28;20449;-60
2023/12/13 05:02:26;;;;;;;15.97;3.13;;;10.50;99.90;;;;;;5052743;28;20449;-60
2023/12/13 05:04:53;;;;;;;7.97;2.00;;;10.60;99.90;;;;;;5052832;28;20457;-61
2023/12/13 05:07:20;;;;;;;5.47;1.73;;;10.60;99.90;;;;;;5052574;28;20819;-61
2023/12/13 05:09:47;;;;;;;8.27;2.23;;;10.60;99.90;;;;;;5052543;28;20940;-61
2023/12/13 05:12:14;;;;;;;15.10;2.17;;;10.60;99.90;;;;;;5052698;28;20465;-61
2023/12/13 05:14:42;;;;;;;8.07;1.80;;;10.60;99.90;;;;;;5052663;28;20445;-62
2023/12/13 05:17:08;;;;;;;5.67;1.77;;;10.50;99.90;;;;;;5052853;28;20442;-61
2023/12/13 05:19:35;;;;;;;10.27;2.40;;;10.50;99.90;;;;;;5052757;28;20495;-61
2023/12/13 05:22:02;;;;;;;8.97;2.37;;;10.50;99.90;;;;;;5052759;28;20462;-61
2023/12/13 05:24:28;;;;;;;9.50;2.20;;;10.50;99.90;;;;;;5052826;28;20442;-61
2023/12/13 05:26:55;;;;;;;9.80;2.30;;;10.50;99.90;;;;;;5054169;28;20487;-61
2023/12/13 05:29:22;;;;;;;4.93;2.10;;;10.50;99.90;;;;;;5056421;28;20481;-61
2023/12/13 05:31:50;;;;;;;14.37;2.63;;;10.50;99.90;;;;;;5056332;28;20500;-61
2023/12/13 05:34:16;;;;;;;8.90;2.10;;;10.50;99.90;;;;;;5056286;28;20449;-61
2023/12/13 05:36:43;;;;;;;11.27;2.30;;;10.50;99.90;;;;;;5056348;28;20448;-61
2023/12/13 05:39:10;;;;;;;9.63;2.20;;;10.50;99.90;;;;;;5056297;28;20450;-61
2023/12/13 05:41:37;;;;;;;8.63;1.93;;;10.50;99.90;;;;;;5056201;28;20461;-61
2023/12/13 05:44:03;;;;;;;6.87;2.03;;;10.50;99.90;;;;;;5056159;28;20449;-61
2023/12/13 05:46:33;;;;;;;8.83;2.50;;;10.50;99.90;;;;;;5056196;28;20448;-61
2023/12/13 05:49:02;;;;;;;8.80;2.90;;;10.40;99.90;;;;;;5056080;28;20477;-61
2023/12/13 05:51:29;;;;;;;11.00;3.10;;;10.40;99.90;;;;;;5055954;28;20503;-61
2023/12/13 05:53:56;;;;;;;17.13;4.60;;;10.40;99.90;;;;;;5055928;28;20487;-62
2023/12/13 05:56:23;;;;;;;11.40;3.33;;;10.40;99.90;;;;;;5055955;28;20456;-61
2023/12/13 05:58:50;;;;;;;14.43;3.13;;;10.40;99.90;;;;;;5055474;28;20939;-62
2023/12/13 06:01:17;;;;;;;14.70;5.70;;;10.40;99.90;;;;;;5055780;28;20473;-61
2023/12/13 06:03:43;;;;;;;9.87;4.47;;;10.40;99.90;;;;;;5055503;28;20909;-61
2023/12/13 06:06:11;;;;;;;14.97;3.50;;;10.40;99.90;;;;;;5055810;28;20445;-61
2023/12/13 06:08:40;;;;;;;17.00;3.93;;;10.40;99.90;;;;;;5055669;28;20481;-61
2023/12/13 06:11:07;;;;;;;10.13;3.20;;;10.30;99.90;;;;;;5055376;28;20458;-65
2023/12/13 06:13:34;;;;;;;12.03;2.90;;;10.30;99.90;;;;;;5055661;28;20445;-61
2023/12/13 06:16:01;;;;;;;11.43;2.80;;;10.20;99.90;;;;;;5056021;28;20539;-62
2023/12/13 06:18:28;;;;;;;8.63;2.40;;;10.30;99.90;;;;;;5055590;28;20955;-61
2023/12/13 06:20:54;;;;;;;9.90;2.03;;;10.30;99.90;;;;;;5055807;28;20831;-62
2023/12/13 06:23:23;;;;;;;8.50;2.40;;;10.30;99.90;;;;;;5055499;28;20441;-62
2023/12/13 06:25:50;;;;;;;7.80;2.30;;;10.30;99.90;;;;;;5055604;28;20453;-61
2023/12/13 06:28:16;;;;;;;11.80;2.20;;;10.30;99.90;;;;;;5055482;28;20482;-61
2023/12/13 06:30:43;;;;;;;12.70;2.83;;;10.30;99.90;;;;;;5055463;28;20454;-61
2023/12/13 06:33:10;;;;;;;12.17;2.73;;;10.30;99.90;;;;;;5055564;28;20453;-61
2023/12/13 06:35:37;;;;;;;8.63;2.00;;;10.30;99.90;;;;;;5055520;28;20441;-61
2023/12/13 06:38:03;;;;;;;9.20;1.80;;;10.30;99.90;;;;;;5054770;28;20470;-61
2023/12/13 06:40:31;;;;;;;7.77;2.40;;;10.30;99.90;;;;;;5055151;28;20998;-61
2023/12/13 06:42:58;;;;;;;7.37;2.33;;;10.40;99.90;;;;;;5055465;28;20472;-61
2023/12/13 06:45:25;;;;;;;14.57;2.10;;;10.40;99.90;;;;;;5055492;28;20484;-61
2023/12/13 06:47:52;;;;;;;12.10;2.50;;;10.30;99.90;;;;;;5055592;28;20963;-61
2023/12/13 06:50:19;;;;;;;10.20;2.73;;;10.30;99.90;;;;;;5055697;28;20442;-61
2023/12/13 06:52:47;;;;;;;8.13;2.30;;;10.40;99.90;;;;;;5055125;28;20948;-61
2023/12/13 06:55:14;;;;;;;15.03;2.30;;;10.30;99.90;;;;;;5055245;28;20476;-61
2023/12/13 06:57:42;;;;;;;10.50;3.27;;;10.40;99.90;;;;;;5055049;28;20495;-61
2023/12/13 07:00:09;;;;;;;9.90;3.13;;;10.40;99.90;;;;;;5054868;28;20445;-61
2023/12/13 07:02:36;;;;;;;14.20;2.90;;;10.40;99.90;;;;;;5054751;28;20445;-61
2023/12/13 07:05:04;;;;;;;10.73;3.07;;;10.30;99.90;;;;;;5054806;28;20465;-61
2023/12/13 07:07:30;;;;;;;10.20;3.30;;;10.30;99.90;;;;;;5054738;28;20441;-61
2023/12/13 07:09:57;;;;;;;11.37;3.07;;;10.30;99.90;;;;;;5054412;28;20508;-61
2023/12/13 07:12:27;;;;;;;14.10;2.27;;;10.30;99.90;;;;;;5054341;28;21005;-62
2023/12/13 07:14:56;;;;;;;7.70;2.70;;;10.20;99.90;;;;;;5054623;28;20463;-61
2023/12/13 07:17:23;;;;;;;6.90;2.20;;;10.20;99.90;;;;;;5054502;28;20461;-61
2023/12/13 07:19:50;;;;;;;7.97;2.20;;;10.20;99.90;;;;;;5055292;28;20445;-61
2023/12/13 07:22:18;;;;;;;5.90;2.30;;;10.20;99.90;;;;;;5054421;28;20497;-61
2023/12/13 07:24:44;;;;;;;12.30;2.20;;;10.20;99.90;;;;;;5054440;28;20445;-61
2023/12/13 07:27:11;;;;;;;9.13;2.10;;;10.20;99.90;;;;;;5054471;28;20815;-61
2023/12/13 07:29:40;;;;;;;10.47;2.40;;;10.10;99.90;;;;;;5054365;28;20480;-61
2023/12/13 07:32:09;;;;;;;11.10;2.50;;;10.10;99.90;;;;;;5054187;28;20847;-61
2023/12/13 07:34:36;;;;;;;10.53;2.27;;;10.10;99.90;;;;;;5054535;28;20853;-62
2023/12/13 07:37:03;;;;;;;8.70;2.83;;;10.10;99.90;;;;;;5054645;28;20482;-61
2023/12/13 07:39:31;;;;;;;10.17;2.73;;;10.10;99.90;;;;;;5054583;28;20438;-61
2023/12/13 07:41:58;;;;;;;6.57;2.60;;;10.10;99.90;;;;;;5053667;28;20983;-61
2023/12/13 07:44:26;;;;;;;8.37;2.47;;;10.10;99.90;;;;;;5054069;28;20450;-61
2023/12/13 07:46:52;;;;;;;11.07;2.10;;;10.10;99.90;;;;;;5054775;28;20473;-61
2023/12/13 07:49:20;;;;;;;10.10;2.70;;;10.10;99.90;;;;;;5054289;28;20474;-61
2023/12/13 07:51:47;;;;;;;8.00;2.60;;;10.10;99.90;;;;;;5053922;28;20461;-61
2023/12/13 07:54:16;;;;;;;10.87;2.57;;;10.10;99.90;;;;;;5053938;28;20445;-61
2023/12/13 07:56:45;;;;;;;11.83;3.73;;;10.10;99.90;;;;;;5054369;28;20445;-61
2023/12/13 07:59:12;;;;;;;4.00;1.90;;;10.10;99.90;;;;;;5054256;28;20471;-61
2023/12/13 08:01:38;;;;;;;11.93;2.93;;;10.10;99.90;;;;;;5054074;28;20476;-61
2023/12/13 08:04:05;;;;;;;10.17;3.10;;;10.10;99.90;;;;;;5054046;28;20838;-61
2023/12/13 08:06:33;;;;;;;12.47;2.73;;;10.10;99.90;;;;;;5054173;28;20820;-61
2023/12/13 08:09:01;;;;;;;14.37;2.30;;;10.10;99.90;;;;;;5053547;28;20921;-61
2023/12/13 08:11:28;;;;;;;11.33;3.00;;;10.10;99.90;;;;;;5053732;28;20471;-61
2023/12/13 08:13:55;;;;;;;4.20;2.63;;;10.10;99.90;;;;;;5053928;28;20446;-61
2023/12/13 08:16:22;;;;;;;10.50;2.30;;;10.10;99.90;;;;;;5053489;28;20511;-61
2023/12/13 08:18:49;;;;;;;11.40;2.10;;;10.20;99.90;;;;;;5053211;28;20449;-60
2023/12/13 08:21:15;;;;;;;12.00;2.30;;;10.20;99.90;;;;;;5053790;28;20464;-61
2023/12/13 08:23:43;;;;;;;19.63;3.07;;;10.20;99.90;;;;;;5053929;28;20453;-61
2023/12/13 08:26:13;;;;;;;4.73;1.40;;;10.30;99.90;;;;;;5053447;28;20450;-61
2023/12/13 08:28:39;;;;;;;10.33;2.50;;;10.30;99.90;;;;;;5053300;28;20535;-61
2023/12/13 08:31:07;;;;;;;7.77;2.37;;;10.30;99.90;;;;;;5053383;28;20474;-61
2023/12/13 08:33:34;;;;;;;12.20;2.43;;;10.40;99.90;;;;;;5053281;28;20453;-61
2023/12/13 08:36:00;;;;;;;12.13;2.77;;;10.40;99.90;;;;;;5053132;28;20437;-61
2023/12/13 08:38:27;;;;;;;7.37;2.10;;;10.40;99.90;;;;;;5053253;28;20450;-61
2023/12/13 08:40:55;;;;;;;10.33;2.07;;;10.50;99.90;;;;;;5052858;28;20481;-60
2023/12/13 08:43:21;;;;;;;9.10;2.57;;;10.50;99.90;;;;;;5052588;28;20936;-60
2023/12/13 08:45:48;;;;;;;9.70;1.47;;;10.50;99.90;;;;;;5052854;28;20445;-61
2023/12/13 08:48:15;;;;;;;6.07;2.30;;;10.50;99.90;;;;;;5053080;28;20445;-61
2023/12/13 08:50:42;;;;;;;11.53;2.40;;;10.60;99.90;;;;;;5052931;28;20536;-61
2023/12/13 08:53:09;;;;;;;9.50;2.37;;;10.60;99.90;;;;;;5053114;28;20449;-60
2023/12/13 08:55:35;;;;;;;11.30;2.70;;;10.70;99.90;;;;;;5052616;28;20936;-59
2023/12/13 08:58:03;;;;;;;5.63;2.57;;;10.70;99.90;;;;;;5053073;28;20465;-59
2023/12/13 09:00:30;;;;;;;9.77;2.50;;;10.80;99.90;;;;;;5052799;28;20478;-59
2023/12/13 09:02:57;;;;;;;11.17;2.13;;;10.80;99.90;;;;;;5055835;28;20468;-60
2023/12/13 09:05:23;;;;;;;8.17;2.43;;;10.80;99.90;;;;;;5056977;28;20868;-60
2023/12/13 09:07:50;;;;;;;9.90;2.60;;;10.70;99.90;;;;;;5057060;28;20445;-60
2023/12/13 09:10:17;;;;;;;13.40;2.80;;;10.80;99.90;;;;;;5056866;28;20484;-60
2023/12/13 09:12:43;;;;;;;15.30;2.60;;;10.90;99.90;;;;;;5056957;28;20442;-60
2023/12/13 09:15:11;;;;;;;7.47;2.00;;;10.90;99.90;;;;;;5061438;28;20935;-60
2023/12/13 09:17:40;;;;;;;8.90;2.50;;;11.00;99.90;;;;;;5064416;28;20441;-60
2023/12/13 09:20:14;;;;;;;11.03;2.17;;;11.00;99.90;;;;;;5063853;28;20445;-60
2023/12/13 09:22:41;;;;;;;6.97;1.93;;;11.10;99.90;;;;;;5056995;28;20426;-60
2023/12/13 09:25:08;;;;;;;8.80;3.30;;;11.10;99.90;;;;;;5057577;28;20801;-60
2023/12/13 09:27:36;;;;;;;6.93;2.57;;;11.20;99.90;;;;;;5056738;28;20493;-60
2023/12/13 09:30:02;;;;;;;7.37;2.10;;;11.20;99.90;;;;;;5056582;28;20481;-60
2023/12/13 09:32:31;;;;;;;7.87;1.90;;;11.30;99.90;;;;;;5056844;28;20452;-60
2023/12/13 09:34:58;;;;;;;13.43;2.57;;;11.40;99.90;;;;;;5056565;28;20489;-60
2023/12/13 09:37:25;;;;;;;9.23;2.13;;;11.40;99.90;;;;;;5056190;28;20450;-61
2023/12/13 09:39:52;;;;;;;8.70;2.07;;;11.50;99.90;;;;;;5056542;28;20446;-61
2023/12/13 09:42:19;;;;;;;8.63;2.40;;;11.50;99.90;;;;;;5056284;28;20556;-60
2023/12/13 09:44:50;;;;;;;9.83;2.00;;;11.50;99.90;;;;;;5056217;28;20927;-60
2023/12/13 09:47:18;;;;;;;8.20;2.03;;;11.60;99.90;;;;;;5057186;28;20425;-60
2023/12/13 09:49:48;;;;;;;8.93;2.43;;;11.50;99.90;;;;;;5056845;28;20503;-60
2023/12/13 09:52:19;;;;;;;11.20;2.13;;;11.60;99.90;;;;;;5056167;28;20493;-60
2023/12/13 09:54:47;;;;;;;12.37;2.47;;;11.70;99.90;;;;;;5056104;28;20452;-60
2023/12/13 09:57:14;;;;;;;12.03;2.83;;;11.70;99.90;;;;;;5056033;28;20449;-60
2023/12/13 09:59:41;;;;;;;8.00;2.30;;;11.80;99.90;;;;;;5056080;28;20449;-61
2023/12/13 10:02:12;;;;;;;8.80;2.23;;;11.80;99.90;;;;;;5055910;28;20499;-61
2023/12/13 10:04:39;;;;;;;12.33;2.30;;;11.80;99.90;;;;;;5055607;28;20453;-61
2023/12/13 10:07:08;;;;;;;8.50;2.77;;;11.80;99.90;;;;;;5055665;28;20441;-61
2023/12/13 10:09:35;;;;;;;11.77;2.40;;;11.80;99.90;;;;;;5055694;28;20517;-61
2023/12/13 10:12:05;;;;;;;11.40;3.07;;;11.80;99.90;;;;;;5055726;28;20861;-61
2023/12/13 10:14:35;;;;;;;8.10;3.23;;;11.80;99.90;;;;;;5054649;28;20422;-61
2023/12/13 10:17:01;;;;;;;7.60;2.80;;;11.80;99.90;;;;;;5055624;28;20441;-60
2023/12/13 10:19:28;;;;;;;9.63;2.50;;;11.90;99.90;;;;;;5055699;28;20441;-60
2023/12/13 10:21:55;;;;;;;13.70;2.50;;;11.90;99.90;;;;;;5055351;28;20501;-60
2023/12/13 10:24:24;;;;;;;12.83;2.50;;;11.90;99.90;;;;;;5055595;28;20457;-60
2023/12/13 10:26:51;;;;;;;12.57;2.73;;;11.90;99.90;;;;;;5055490;28;20519;-60
2023/12/13 10:29:21;;;;;;;8.13;2.10;;;11.80;99.90;;;;;;5055369;28;20906;-60
2023/12/13 10:31:47;;;;;;;10.40;2.70;;;11.80;99.90;;;;;;5055111;28;20465;-61
2023/12/13 10:34:15;;;;;;;8.30;3.03;;;11.70;99.90;;;;;;5055051;28;20442;-60
2023/12/13 10:36:42;;;;;;;6.90;2.53;;;11.70;99.90;;;;;;5055141;28;20448;-60
2023/12/13 10:39:14;;;;;;;12.53;3.30;;;11.80;99.90;;;;;;5055303;28;20448;-60
2023/12/13 10:41:44;;;;;;;7.47;2.87;;;11.80;99.90;;;;;;5055604;28;20466;-60
2023/12/13 10:44:16;;;;;;;8.00;2.00;;;11.80;99.90;;;;;;5055022;28;20926;-60
2023/12/13 10:46:46;;;;;;;9.33;1.97;;;11.90;99.90;;;;;;5055319;28;20421;-60
2023/12/13 10:49:16;;;;;;;9.27;2.77;;;11.90;99.90;;;;;;5055144;28;20456;-60
2023/12/13 10:51:44;;;;;;;8.40;2.17;;;11.90;99.90;;;;;;5055018;28;20476;-60
2023/12/13 10:54:12;;;;;;;7.43;2.40;;;11.90;99.90;;;;;;5055232;28;20438;-60
2023/12/13 10:56:39;;;;;;;7.20;2.47;;;12.00;99.90;;;;;;5054705;28;20437;-60
2023/12/13 10:59:09;;;;;;;10.87;3.00;;;12.10;99.90;;;;;;5054591;28;20947;-59
2023/12/13 11:01:38;;;;;;;14.03;2.70;;;12.10;99.90;;;;;;5054856;28;20481;-59
2023/12/13 11:04:10;;;;;;;12.30;3.10;;;12.10;99.90;;;;;;5054365;28;20815;-59
2023/12/13 11:06:37;;;;;;;6.63;2.20;;;12.10;99.90;;;;;;5054876;28;20526;-60
2023/12/13 11:09:13;;;;;;;7.37;2.40;;;12.20;99.90;;;;;;5054715;28;20491;-60
2023/12/13 11:11:41;;;;;;;10.97;2.97;;;12.30;99.90;;;;;;5054482;28;20469;-60
2023/12/13 11:14:10;;;;;;;8.83;2.63;;;12.40;99.90;;;;;;5054281;28;20932;-60
2023/12/13 11:16:42;;;;;;;6.77;2.80;;;12.60;99.90;;;;;;5054056;28;20935;-60
2023/12/13 11:19:12;;;;;;;9.30;3.57;;;12.70;99.90;;;;;;5054477;28;20474;-60
2023/12/13 11:21:41;;;;;;;11.90;3.20;;;12.70;99.90;;;;;;5054386;28;20835;-60
2023/12/13 11:24:12;;;;;;;10.93;3.67;;;12.70;99.90;;;;;;5054055;28;20859;-60
2023/12/13 11:26:40;;;;;;;13.03;4.20;;;12.80;99.90;;;;;;5054316;28;20446;-60
2023/12/13 11:29:15;;;;;;;10.50;4.13;;;12.90;99.90;;;;;;5053982;28;20449;-60
2023/12/13 11:31:50;;;;;;;10.07;4.80;;;12.90;99.90;;;;;;5054167;28;20512;-60
2023/12/13 11:34:17;;;;;;;14.40;3.97;;;12.90;99.90;;;;;;5054068;28;20440;-59
2023/12/13 11:36:45;;;;;;;8.53;2.77;;;12.90;99.90;;;;;;5053894;28;20441;-60
2023/12/13 11:39:12;;;;;;;4.30;1.63;;;12.90;99.90;;;;;;5054108;28;20446;-60
2023/12/13 11:41:40;;;;;;;7.27;2.43;;;13.00;99.90;;;;;;5053988;28;20531;-60
2023/12/13 11:44:06;;;;;;;6.13;2.00;;;13.10;99.90;;;;;;5054027;28;20441;-61
2023/12/13 11:46:34;;;;;;;10.27;3.13;;;13.20;99.90;;;;;;5053998;28;20812;-60
2023/12/13 11:49:01;;;;;;;7.90;2.40;;;13.30;99.90;;;;;;5053877;28;20438;-60
2023/12/13 11:51:28;;;;;;;10.43;4.90;;;13.40;99.90;;;;;;5053654;28;20489;-60
2023/12/13 11:53:55;;;;;;;6.63;2.33;;;13.50;99.90;;;;;;5053521;28;20449;-60
2023/12/13 11:56:22;;;;;;;12.57;3.50;;;13.60;99.90;;;;;;5053645;28;20445;-60
2023/12/13 11:58:50;;;;;;;10.40;3.07;;;13.60;99.90;;;;;;5053220;28;20449;-60
2023/12/13 12:01:19;;;;;;;5.97;2.17;;;13.70;99.90;;;;;;5073466;28;20493;-61
2023/12/13 12:03:47;;;;;;;10.23;2.93;;;13.80;99.90;;;;;;5073579;28;20467;-61
2023/12/13 12:06:15;;;;;;;6.80;2.07;;;13.90;99.90;;;;;;5073598;28;20452;-61
2023/12/13 12:08:42;;;;;;;3.93;1.80;;;14.00;99.50;;;;;;5073298;28;20455;-61
2023/12/13 12:11:09;;;;;;;4.60;2.00;;;14.20;99.20;;;;;;5073457;28;20520;-61
2023/12/13 12:13:36;;;;;;;8.90;2.23;;;14.30;98.40;;;;;;5073281;28;20460;-61
2023/12/13 12:16:03;;;;;;;6.37;1.90;;;14.40;97.30;;;;;;5072983;28;20935;-61
2023/12/13 12:18:30;;;;;;;6.57;1.70;;;14.50;96.80;;;;;;5073525;28;20440;-61
2023/12/13 12:20:58;;;;;;;8.30;2.80;;;14.50;95.70;;;;;;5073362;28;20456;-61
2023/12/13 12:23:25;;;;;;;9.10;1.77;;;14.50;94.40;;;;;;5073402;28;20440;-62
2023/12/13 12:25:53;;;;;;;11.63;2.23;;;14.20;94.60;;;;;;5073352;28;20536;-61
2023/12/13 12:28:20;;;;;;;4.03;1.40;;;14.00;94.40;;;;;;5073504;28;20464;-61
2023/12/13 12:30:46;;;;;;;8.83;3.00;;;13.80;94.80;;;;;;5073610;28;20488;-62
2023/12/13 12:33:13;;;;;;;8.40;1.80;;;13.80;95.40;;;;;;5073485;28;21002;-62
2023/12/13 12:35:40;;;;;;;9.17;2.03;;;13.80;95.50;;;;;;5073285;28;20468;-61
2023/12/13 12:38:09;;;;;;;4.57;1.90;;;13.70;95.00;;;;;;5073145;28;20444;-61
2023/12/13 12:40:36;;;;;;;6.40;1.80;;;13.70;95.20;;;;;;5073270;28;20467;-61
2023/12/13 12:43:02;;;;;;;7.03;1.77;;;13.60;95.20;;;;;;5073328;28;20445;-61
2023/12/13 12:45:29;;;;;;;6.60;2.10;;;13.60;95.40;;;;;;5073293;28;20453;-61